createdAt,value
2018-12-25T00:01:45.744Z,67.05
2018-12-25T00:04:19.175Z,67.62
2018-12-25T00:06:51.365Z,69.34
2018-12-25T00:09:21.999Z,68.70
2018-12-25T00:11:52.907Z,69.39
2018-12-25T00:14:23.126Z,69.33
2018-12-25T00:16:56.858Z,69.59
2018-12-25T00:19:27.632Z,70.12
2018-12-25T00:21:56.785Z,71.50
2018-12-25T00:24:25.895Z,71.36
2018-12-25T00:26:54.991Z,70.92
2018-12-25T00:29:24.073Z,72.36
2018-12-25T00:31:53.255Z,71.73
2018-12-25T00:34:22.332Z,71.57
2018-12-25T00:36:54.901Z,71.04
2018-12-25T00:39:33.498Z,72.94
2018-12-25T00:42:03.803Z,72.26
2018-12-25T00:44:34.642Z,73.50
2018-12-25T00:47:06.820Z,73.30
2018-12-25T00:49:37.021Z,74.13
2018-12-25T00:52:11.172Z,73.06
2018-12-25T00:54:40.618Z,74.58
2018-12-25T00:57:11.065Z,75.76
2018-12-25T00:59:40.186Z,74.50
2018-12-25T01:02:11.841Z,74.67
2018-12-25T01:04:42.748Z,73.31
2018-12-25T01:07:12.108Z,71.06
2018-12-25T01:09:41.212Z,68.75
2018-12-25T01:12:13.827Z,68.07
2018-12-25T01:14:45.981Z,68.76
2018-12-25T01:17:15.124Z,67.17
2018-12-25T01:19:44.255Z,67.66
2018-12-25T01:22:15.522Z,68.88
2018-12-25T01:24:49.211Z,69.79
2018-12-25T01:27:18.410Z,69.50
2018-12-25T01:29:47.520Z,69.18
2018-12-25T01:32:18.104Z,69.75
2018-12-25T01:34:49.657Z,70.23
2018-12-25T01:37:22.189Z,69.46
2018-12-25T01:39:53.719Z,70.60
2018-12-25T01:42:23.160Z,69.91
2018-12-25T01:45:00.256Z,68.69
2018-12-25T01:47:29.362Z,68.24
2018-12-25T01:50:00.749Z,68.37
2018-12-25T01:52:35.546Z,69.38
2018-12-25T01:55:05.021Z,69.87
2018-12-25T01:57:34.159Z,68.92
2018-12-25T02:00:04.692Z,70.22
2018-12-25T02:02:36.284Z,69.77
2018-12-25T02:05:05.428Z,69.26
2018-12-25T02:07:35.934Z,68.98
2018-12-25T02:10:08.470Z,68.83
2018-12-25T02:12:37.904Z,68.42
2018-12-25T02:15:12.966Z,67.80
2018-12-25T02:17:42.128Z,66.81
2018-12-25T02:20:13.907Z,66.08
2018-12-25T02:22:43.023Z,64.89
2018-12-25T02:25:12.129Z,64.75
2018-12-25T02:27:41.349Z,64.60
2018-12-25T02:30:13.978Z,66.87
2018-12-25T02:32:43.064Z,64.00
2018-12-25T02:35:12.176Z,65.88
2018-12-25T02:37:45.503Z,67.86
2018-12-25T02:40:12.187Z,68.61
2018-12-25T02:42:41.295Z,70.00
2018-12-25T02:45:12.369Z,70.68
2018-12-25T02:47:41.583Z,71.56
2018-12-25T02:50:14.839Z,70.87
2018-12-25T02:52:43.934Z,71.14
2018-12-25T02:55:13.815Z,70.20
2018-12-25T02:57:42.991Z,69.70
2018-12-25T03:00:35.429Z,70.76
2018-12-25T03:03:07.450Z,68.08
2018-12-25T03:05:39.570Z,68.94
2018-12-25T03:08:15.600Z,70.20
2018-12-25T03:10:44.701Z,70.10
2018-12-25T03:13:14.014Z,71.61
2018-12-25T03:15:43.460Z,69.94
2018-12-25T03:18:12.596Z,68.61
2018-12-25T03:20:45.040Z,70.43
2018-12-25T03:23:14.311Z,68.71
2018-12-25T03:25:43.641Z,67.16
2018-12-25T03:28:15.773Z,67.42
2018-12-25T03:30:44.894Z,66.64
2018-12-25T03:33:15.538Z,68.40
2018-12-25T03:35:44.650Z,64.75
2018-12-25T03:38:13.856Z,65.83
2018-12-25T03:40:43.907Z,67.64
2018-12-25T03:43:13.554Z,68.75
2018-12-25T03:45:42.816Z,67.78
2018-12-25T03:48:12.247Z,65.04
2018-12-25T03:50:41.398Z,65.46
2018-12-25T03:53:10.495Z,64.77
2018-12-25T03:55:42.252Z,64.99
2018-12-25T03:58:11.327Z,64.84
2018-12-25T04:00:40.405Z,65.15
2018-12-25T04:03:09.554Z,65.58
2018-12-25T04:05:39.198Z,64.40
2018-12-25T04:08:11.117Z,65.92
2018-12-25T04:10:47.339Z,67.48
2018-12-25T04:13:16.481Z,67.11
2018-12-25T04:15:47.002Z,66.17
2018-12-25T04:18:20.029Z,66.70
2018-12-25T04:20:50.660Z,65.67
2018-12-25T04:23:19.806Z,65.00
2018-12-25T04:25:49.243Z,67.42
2018-12-25T04:28:18.862Z,66.87
2018-12-25T04:30:51.215Z,66.01
2018-12-25T04:33:22.005Z,63.72
2018-12-25T04:35:51.122Z,64.82
2018-12-25T04:38:21.900Z,64.88
2018-12-25T04:40:51.511Z,65.47
2018-12-25T04:43:28.200Z,64.37
2018-12-25T04:45:59.383Z,65.19
2018-12-25T04:48:29.613Z,65.80
2018-12-25T04:50:58.706Z,65.27
2018-12-25T04:53:28.906Z,66.44
2018-12-25T04:55:59.778Z,65.90
2018-12-25T04:58:29.300Z,67.38
2018-12-25T05:01:01.549Z,66.98
2018-12-25T05:05:59.021Z,64.36
2018-12-25T05:08:29.233Z,61.98
2018-12-25T05:10:58.348Z,63.39
2018-12-25T05:13:28.334Z,65.22
2018-12-25T05:16:03.446Z,66.00
2018-12-25T05:18:32.808Z,66.80
2018-12-25T05:21:05.003Z,66.08
2018-12-25T05:23:37.124Z,66.12
2018-12-25T05:26:07.631Z,65.67
2018-12-25T05:28:38.349Z,65.48
2018-12-25T05:31:07.459Z,67.23
2018-12-25T05:33:39.445Z,66.56
2018-12-25T05:36:08.553Z,66.92
2018-12-25T05:38:37.764Z,65.92
2018-12-25T05:41:10.138Z,66.14
2018-12-25T05:43:42.639Z,68.80
2018-12-25T05:46:11.770Z,66.49
2018-12-25T05:48:42.614Z,65.80
2018-12-25T05:51:16.403Z,66.32
2018-12-25T05:53:48.724Z,68.45
2018-12-25T05:56:23.608Z,72.24
2018-12-25T05:58:55.091Z,72.90
2018-12-25T06:01:24.177Z,73.12
2018-12-25T06:03:53.279Z,72.00
2018-12-25T06:06:22.451Z,73.41
2018-12-25T06:08:53.804Z,73.35
2018-12-25T06:11:29.401Z,72.17
2018-12-25T06:13:58.507Z,73.84
2018-12-25T06:16:32.250Z,75.50
2018-12-25T06:19:07.087Z,76.12
2018-12-25T06:21:37.916Z,77.63
2018-12-25T06:24:08.623Z,77.38
2018-12-25T06:26:40.198Z,77.77
2018-12-25T06:29:12.712Z,79.05
2018-12-25T06:31:49.251Z,78.30
2018-12-25T06:34:18.360Z,78.13
2018-12-25T06:36:49.985Z,79.24
2018-12-25T06:39:19.296Z,78.42
2018-12-25T06:41:48.417Z,78.98
2018-12-25T06:44:18.538Z,78.47
2018-12-25T06:46:47.652Z,78.77
2018-12-25T06:49:16.727Z,77.00
2018-12-25T06:51:45.841Z,78.73
2018-12-25T06:54:17.462Z,77.94
2018-12-25T06:56:51.939Z,78.60
2018-12-25T06:59:23.541Z,78.75
2018-12-25T07:01:52.673Z,77.04
2018-12-25T07:04:22.935Z,76.48
2018-12-25T07:06:52.044Z,76.97
2018-12-25T07:09:21.151Z,77.39
2018-12-25T07:11:53.298Z,76.96
2018-12-25T07:14:27.985Z,76.09
2018-12-25T07:16:58.763Z,76.74
2018-12-25T07:19:29.555Z,75.42
2018-12-25T07:21:58.720Z,74.48
2018-12-25T07:24:31.075Z,73.41
2018-12-25T07:27:03.032Z,71.92
2018-12-25T07:29:32.249Z,69.76
2018-12-25T07:32:01.369Z,69.33
2018-12-25T07:34:30.466Z,68.66
2018-12-25T07:37:01.295Z,68.71
2018-12-25T07:39:36.805Z,68.73
2018-12-25T07:42:10.487Z,67.01
2018-12-25T07:44:42.646Z,68.63
2018-12-25T07:47:11.807Z,69.24
2018-12-25T07:49:40.988Z,68.99
2018-12-25T07:52:12.107Z,67.89
2018-12-25T07:54:41.315Z,64.35
2018-12-25T07:57:10.428Z,64.90
2018-12-25T07:59:39.547Z,64.62
2018-12-25T08:02:08.689Z,63.24
2018-12-25T08:04:37.889Z,62.54
2018-12-25T08:07:10.077Z,63.63
2018-12-25T08:09:39.299Z,61.32
2018-12-25T08:12:08.484Z,62.38
2018-12-25T08:14:37.578Z,64.09
2018-12-25T08:17:07.710Z,64.52
2018-12-25T08:19:36.849Z,65.82
2018-12-25T08:22:10.306Z,66.62
2018-12-25T08:24:39.548Z,66.69
2018-12-25T08:27:09.072Z,66.30
2018-12-25T08:29:44.169Z,65.79
2018-12-25T08:32:14.099Z,67.63
2018-12-25T08:34:44.309Z,66.07
2018-12-25T08:37:13.694Z,65.50
2018-12-25T08:39:51.050Z,66.33
2018-12-25T08:42:20.153Z,68.00
2018-12-25T08:44:50.978Z,66.53
2018-12-25T08:47:21.038Z,65.07
2018-12-25T08:49:53.510Z,65.43
2018-12-25T08:52:26.050Z,67.05
2018-12-25T08:54:57.866Z,67.55
2018-12-25T08:57:29.589Z,67.37
2018-12-25T08:59:59.145Z,68.44
2018-12-25T09:02:29.522Z,68.51
2018-12-25T09:04:58.651Z,67.74
2018-12-25T09:07:27.799Z,69.53
2018-12-25T09:09:57.552Z,68.93
2018-12-25T09:12:26.739Z,70.68
2018-12-25T09:14:55.854Z,73.61
2018-12-25T09:17:24.967Z,73.59
2018-12-25T09:19:54.088Z,72.51
2018-12-25T09:22:24.372Z,74.22
2018-12-25T09:24:59.211Z,73.24
2018-12-25T09:27:28.368Z,75.06
2018-12-25T09:29:59.781Z,75.58
2018-12-25T09:32:29.250Z,74.52
2018-12-25T09:34:58.415Z,74.19
2018-12-25T09:37:27.533Z,73.67
2018-12-25T09:39:56.791Z,74.64
2018-12-25T09:42:25.988Z,73.11
2018-12-25T09:44:56.836Z,71.92
2018-12-25T09:47:26.228Z,71.53
2018-12-25T09:49:57.794Z,73.85
2018-12-25T09:52:26.886Z,77.22
2018-12-25T09:54:56.018Z,78.66
2018-12-25T09:57:26.373Z,77.28
2018-12-25T09:59:55.479Z,77.41
2018-12-25T10:02:25.438Z,78.10
2018-12-25T10:04:56.575Z,75.56
2018-12-25T10:07:31.049Z,75.22
2018-12-25T10:10:00.207Z,73.54
2018-12-25T10:12:29.317Z,75.68
2018-12-25T10:14:58.427Z,75.82
2018-12-25T10:17:28.855Z,73.00
2018-12-25T10:19:57.952Z,74.40
2018-12-25T10:22:30.950Z,74.57
2018-12-25T10:25:00.163Z,74.71
2018-12-25T10:27:38.073Z,73.33
2018-12-25T10:30:08.131Z,74.56
2018-12-25T10:32:37.231Z,76.15
2018-12-25T10:35:11.141Z,74.97
2018-12-25T10:37:41.730Z,74.59
2018-12-25T10:40:13.676Z,73.29
2018-12-25T10:42:48.622Z,71.52
2018-12-25T10:45:19.431Z,71.59
2018-12-25T10:47:56.068Z,72.33
2018-12-25T10:50:25.248Z,73.63
2018-12-25T10:52:57.778Z,72.66
2018-12-25T10:55:32.402Z,72.53
2018-12-25T10:58:04.602Z,71.63
2018-12-25T11:00:50.436Z,73.02
2018-12-25T11:03:19.579Z,72.95
2018-12-25T11:05:49.986Z,72.42
2018-12-25T11:08:19.126Z,72.71
2018-12-25T11:10:50.096Z,73.57
2018-12-25T11:13:19.206Z,74.63
2018-12-25T11:15:50.031Z,75.23
2018-12-25T11:18:19.178Z,76.17
2018-12-25T11:20:48.417Z,76.34
2018-12-25T11:23:20.382Z,76.64
2018-12-25T11:25:52.819Z,77.67
2018-12-25T11:28:25.052Z,77.19
2018-12-25T11:30:54.171Z,76.22
2018-12-25T11:33:23.301Z,75.86
2018-12-25T11:35:54.500Z,76.24
2018-12-25T11:38:23.335Z,76.20
2018-12-25T11:40:52.491Z,74.02
2018-12-25T11:43:21.595Z,76.33
2018-12-25T11:45:50.748Z,78.04
2018-12-25T11:48:20.992Z,77.50
2018-12-25T11:51:02.074Z,77.85
2018-12-25T11:53:37.169Z,78.05
2018-12-25T11:56:06.326Z,78.70
2018-12-25T11:58:39.350Z,78.57
2018-12-25T12:01:08.396Z,79.57
2018-12-25T12:03:40.062Z,79.84
2018-12-25T12:06:09.263Z,78.82
2018-12-25T12:08:39.525Z,78.24
2018-12-25T12:11:11.225Z,76.84
2018-12-25T12:13:40.341Z,75.32
2018-12-25T12:16:09.515Z,76.19
2018-12-25T12:18:38.616Z,77.65
2018-12-25T12:21:07.706Z,77.53
2018-12-25T12:23:39.450Z,78.80
2018-12-25T12:26:09.911Z,77.92
2018-12-25T12:29:02.286Z,76.65
2018-12-25T12:31:31.437Z,75.53
2018-12-25T12:34:03.748Z,73.96
2018-12-25T12:36:32.887Z,74.01
2018-12-25T12:39:03.148Z,74.22
2018-12-25T12:41:32.225Z,73.27
2018-12-25T12:44:02.546Z,73.14
2018-12-25T12:46:33.488Z,72.53
2018-12-25T12:49:02.587Z,69.21
2018-12-25T12:51:31.745Z,70.34
2018-12-25T12:54:05.248Z,70.28
2018-12-25T12:56:34.327Z,72.36
2018-12-25T12:59:05.666Z,74.37
2018-12-25T13:01:35.846Z,73.85
2018-12-25T13:04:04.957Z,72.86
2018-12-25T13:06:37.203Z,72.47
2018-12-25T13:09:08.154Z,74.40
2018-12-25T13:11:41.420Z,73.86
2018-12-25T13:14:10.759Z,71.77
2018-12-25T13:16:39.878Z,72.78
2018-12-25T13:19:09.051Z,71.11
2018-12-25T13:21:40.293Z,72.12
2018-12-25T13:24:14.983Z,71.48
2018-12-25T13:26:44.123Z,70.25
2018-12-25T13:29:14.898Z,68.99
2018-12-25T13:31:43.951Z,71.17
2018-12-25T13:34:18.064Z,71.55
2018-12-25T13:36:47.476Z,71.08
2018-12-25T13:39:17.343Z,72.08
2018-12-25T13:41:46.472Z,72.95
2018-12-25T13:44:15.998Z,73.92
2018-12-25T13:46:51.594Z,75.48
2018-12-25T13:49:18.103Z,75.26
2018-12-25T13:51:48.946Z,75.11
2018-12-25T13:54:23.155Z,74.19
2018-12-25T13:56:52.270Z,73.81
2018-12-25T13:59:23.916Z,73.13
2018-12-25T14:01:53.010Z,71.92
2018-12-25T14:04:22.210Z,71.47
2018-12-25T14:06:51.345Z,71.41
2018-12-25T14:09:21.773Z,74.07
2018-12-25T14:11:51.158Z,72.10
2018-12-25T14:14:21.700Z,72.08
2018-12-25T14:16:53.349Z,72.63
2018-12-25T14:19:26.623Z,72.85
2018-12-25T14:22:02.413Z,73.94
2018-12-25T14:24:31.589Z,75.06
2018-12-25T14:27:00.827Z,74.86
2018-12-25T14:29:31.159Z,75.12
2018-12-25T14:32:04.821Z,73.52
2018-12-25T14:34:42.784Z,72.44
2018-12-25T14:37:13.519Z,71.01
2018-12-25T14:39:42.731Z,70.24
2018-12-25T14:42:11.955Z,71.38
2018-12-25T14:44:41.048Z,71.83
2018-12-25T14:47:12.141Z,73.43
2018-12-25T14:49:42.371Z,74.93
2018-12-25T14:52:11.648Z,73.52
2018-12-25T14:54:45.292Z,75.30
2018-12-25T14:57:15.706Z,74.76
2018-12-25T14:59:44.843Z,73.47
2018-12-25T15:02:15.782Z,73.09
2018-12-25T15:04:46.028Z,73.00
2018-12-25T15:07:17.559Z,75.10
2018-12-25T15:09:46.707Z,76.08
2018-12-25T15:12:15.811Z,76.26
2018-12-25T15:14:46.647Z,77.02
2018-12-25T15:17:19.596Z,78.35
2018-12-25T15:19:48.717Z,78.05
2018-12-25T15:22:18.051Z,75.51
2018-12-25T15:24:47.284Z,75.38
2018-12-25T15:27:21.730Z,73.50
2018-12-25T15:29:50.937Z,72.95
2018-12-25T15:32:24.212Z,73.85
2018-12-25T15:34:55.071Z,75.53
2018-12-25T15:37:25.226Z,74.21
2018-12-25T15:39:54.689Z,71.74
2018-12-25T15:42:23.792Z,71.84
2018-12-25T15:44:53.071Z,74.34
2018-12-25T15:47:24.522Z,74.08
2018-12-25T15:49:56.958Z,73.01
2018-12-25T15:52:30.280Z,73.90
2018-12-25T15:55:01.831Z,73.06
2018-12-25T15:57:30.978Z,75.36
2018-12-25T16:00:01.352Z,75.24
2018-12-25T16:02:30.454Z,75.02
2018-12-25T16:05:02.124Z,75.87
2018-12-25T16:07:31.542Z,75.54
2018-12-25T16:10:04.226Z,74.77
2018-12-25T16:12:33.312Z,75.01
2018-12-25T16:15:03.749Z,73.37
2018-12-25T16:17:32.828Z,72.75
2018-12-25T16:20:06.314Z,74.34
2018-12-25T16:22:39.554Z,75.25
2018-12-25T16:25:10.301Z,74.84
2018-12-25T16:27:43.584Z,76.70
2018-12-25T16:30:12.724Z,77.34
2018-12-25T16:32:44.254Z,76.25
2018-12-25T16:35:18.720Z,76.31
2018-12-25T16:37:48.228Z,76.93
2018-12-25T16:40:21.825Z,76.83
2018-12-25T16:42:51.335Z,77.17
2018-12-25T16:45:24.834Z,77.55
2018-12-25T16:47:54.440Z,75.94
2018-12-25T16:50:24.260Z,76.49
2018-12-25T16:52:53.490Z,76.33
2018-12-25T16:55:24.396Z,76.00
2018-12-25T16:57:57.207Z,76.88
2018-12-25T17:00:29.080Z,77.48
2018-12-25T17:02:58.974Z,78.35
2018-12-25T17:05:29.926Z,77.79
2018-12-25T17:07:59.034Z,75.36
2018-12-25T17:10:31.059Z,73.84
2018-12-25T17:13:20.767Z,72.72
2018-12-25T17:15:51.305Z,72.39
2018-12-25T17:18:22.880Z,74.28
2018-12-25T17:20:52.300Z,76.41
2018-12-25T17:23:21.440Z,76.28
2018-12-25T17:25:53.062Z,76.33
2018-12-25T17:28:27.790Z,74.69
2018-12-25T17:30:53.152Z,74.21
2018-12-25T17:33:22.391Z,73.35
2018-12-25T17:35:52.020Z,72.40
2018-12-25T17:38:22.346Z,75.12
2018-12-25T17:40:51.917Z,75.84
2018-12-25T17:43:24.760Z,76.89
2018-12-25T17:45:53.794Z,76.72
2018-12-25T17:48:26.022Z,75.81
2018-12-25T17:50:56.585Z,75.88
2018-12-25T17:53:25.834Z,75.50
2018-12-25T17:55:55.274Z,72.44
2018-12-25T17:58:27.646Z,70.87
2018-12-25T18:00:56.838Z,71.46
2018-12-25T18:03:28.692Z,72.32
2018-12-25T18:06:01.556Z,72.19
2018-12-25T18:08:31.271Z,72.96
2018-12-25T18:11:01.673Z,72.46
2018-12-25T18:13:33.556Z,74.49
2018-12-25T18:16:02.649Z,76.33
2018-12-25T18:18:35.462Z,76.51
2018-12-25T18:21:04.615Z,77.26
2018-12-25T18:23:35.727Z,78.14
2018-12-25T18:26:04.805Z,75.73
2018-12-25T18:28:33.938Z,75.28
2018-12-25T18:31:06.001Z,74.61
2018-12-25T18:33:35.149Z,75.24
2018-12-25T18:36:07.244Z,74.20
2018-12-25T18:38:39.341Z,76.48
2018-12-25T18:41:10.801Z,76.96
2018-12-25T18:43:40.982Z,76.69
2018-12-25T18:46:12.107Z,79.57
2018-12-25T18:48:42.650Z,79.09
2018-12-25T18:51:16.495Z,80.09
2018-12-25T18:53:47.238Z,78.63
2018-12-25T18:56:16.681Z,77.51
2018-12-25T18:58:46.266Z,75.52
2018-12-25T19:01:17.589Z,75.14
2018-12-25T19:03:46.673Z,76.86
2018-12-25T19:06:15.886Z,78.02
2018-12-25T19:08:46.850Z,78.58
2018-12-25T19:11:19.401Z,76.40
2018-12-25T19:13:54.718Z,76.73
2018-12-25T19:16:23.824Z,77.68
2018-12-25T19:18:53.206Z,77.66
2018-12-25T19:21:22.328Z,77.59
2018-12-25T19:23:59.981Z,77.72
2018-12-25T19:26:29.100Z,78.38
2018-12-25T19:29:00.104Z,78.03
2018-12-25T19:31:29.234Z,80.41
2018-12-25T19:33:58.379Z,80.36
2018-12-25T19:36:27.535Z,80.21
2018-12-25T19:38:59.330Z,78.28
2018-12-25T19:41:28.486Z,79.21
2018-12-25T19:43:57.690Z,78.44
2018-12-25T19:46:28.036Z,77.73
2018-12-25T19:48:57.588Z,78.25
2018-12-25T19:51:26.804Z,79.39
2018-12-25T19:53:57.303Z,78.94
2018-12-25T19:56:29.253Z,79.21
2018-12-25T19:59:00.133Z,78.67
2018-12-25T20:01:30.540Z,78.86
2018-12-25T20:04:35.046Z,77.99
2018-12-25T20:07:46.992Z,79.89
2018-12-25T20:11:03.183Z,80.22
2018-12-25T20:14:22.719Z,80.16
2018-12-25T20:17:31.527Z,77.75
2018-12-25T20:20:52.842Z,78.33
2018-12-25T20:24:19.237Z,80.60
2018-12-25T20:27:17.534Z,79.65
2018-12-25T20:30:29.516Z,80.25
2018-12-25T20:33:21.921Z,81.74
2018-12-25T20:36:52.701Z,83.21
2018-12-25T20:40:03.291Z,83.04
2018-12-25T20:43:05.971Z,82.48
2018-12-25T20:46:30.959Z,81.59
2018-12-25T20:49:52.529Z,83.10
2018-12-25T20:53:05.569Z,83.28
2018-12-25T20:56:18.264Z,81.89
2018-12-25T20:59:27.399Z,81.73
2018-12-25T21:02:46.741Z,81.68
2018-12-25T21:05:42.951Z,82.57
2018-12-25T21:08:48.077Z,82.09
2018-12-25T21:12:08.184Z,81.67
2018-12-25T21:15:08.112Z,81.12
2018-12-25T21:18:13.211Z,81.27
2018-12-25T21:21:18.375Z,81.33
2018-12-25T21:24:23.266Z,80.32
2018-12-25T21:27:28.331Z,80.16
2018-12-25T21:30:04.491Z,81.19
2018-12-25T21:32:39.312Z,81.68
2018-12-25T21:35:15.299Z,81.36
2018-12-25T21:37:46.619Z,80.41
2018-12-25T21:40:18.669Z,80.02
2018-12-25T21:42:49.766Z,79.85
2018-12-25T21:45:21.913Z,79.12
2018-12-25T21:47:51.038Z,79.50
2018-12-25T21:50:22.801Z,79.71
2018-12-25T21:52:56.746Z,78.47
2018-12-25T21:55:26.722Z,76.35
2018-12-25T21:57:55.931Z,74.07
2018-12-25T22:00:28.857Z,74.62
2018-12-25T22:02:58.072Z,73.63
2018-12-25T22:05:28.385Z,72.12
2018-12-25T22:07:57.523Z,74.32
2018-12-25T22:10:29.034Z,73.88
2018-12-25T22:12:58.438Z,74.91
2018-12-25T22:15:33.494Z,75.96
2018-12-25T22:18:09.518Z,77.01
2018-12-25T22:20:40.527Z,74.57
2018-12-25T22:23:10.696Z,74.91
2018-12-25T22:25:40.975Z,74.16
2018-12-25T22:28:10.605Z,75.41
2018-12-25T22:30:39.659Z,75.82
2018-12-25T22:33:10.099Z,73.86
2018-12-25T22:35:41.198Z,73.03
2018-12-25T22:38:14.027Z,75.25
2018-12-25T22:40:43.100Z,76.26
2018-12-25T22:43:16.112Z,74.10
2018-12-25T22:45:47.274Z,72.99
2018-12-25T22:48:19.734Z,71.78
2018-12-25T22:50:51.942Z,73.11
2018-12-25T22:53:22.502Z,73.65
2018-12-25T22:55:52.626Z,74.27
2018-12-25T22:58:21.994Z,73.75
2018-12-25T23:00:56.398Z,72.29
2018-12-25T23:03:27.509Z,70.78
2018-12-25T23:06:00.520Z,71.53
2018-12-25T23:08:30.532Z,72.25
2018-12-25T23:10:59.731Z,71.71
2018-12-25T23:16:21.904Z,71.17
2018-12-25T23:18:53.993Z,70.80
2018-12-25T23:21:23.105Z,71.86
2018-12-25T23:23:53.418Z,72.60
2018-12-25T23:26:23.294Z,69.67
2018-12-25T23:28:52.679Z,68.06
2018-12-25T23:31:21.997Z,68.92
2018-12-25T23:33:51.505Z,71.14
2018-12-25T23:36:21.934Z,69.51
2018-12-25T23:38:53.999Z,71.56
2018-12-25T23:41:23.322Z,72.92
2018-12-25T23:43:52.679Z,71.72
2018-12-25T23:46:22.422Z,71.78
2018-12-25T23:48:51.546Z,74.29
2018-12-25T23:51:22.080Z,75.80
2018-12-25T23:53:53.651Z,75.90
2018-12-25T23:56:22.757Z,74.17
2018-12-25T23:58:51.942Z,73.10
